createdAt,value
2018-11-25T00:00:38.678Z,32.53
2018-11-25T00:03:07.682Z,37.20
2018-11-25T00:05:37.871Z,31.43
2018-11-25T00:08:07.031Z,34.23
2018-11-25T00:10:36.800Z,31.67
2018-11-25T00:13:06.785Z,31.60
2018-11-25T00:15:36.262Z,30.47
2018-11-25T00:18:06.426Z,30.50
2018-11-25T00:20:35.778Z,30.07
2018-11-25T00:23:05.384Z,33.63
2018-11-25T00:25:35.870Z,33.30
2018-11-25T00:28:05.950Z,35.30
2018-11-25T00:30:35.554Z,33.67
2018-11-25T00:33:05.350Z,36.00
2018-11-25T00:35:35.582Z,38.10
2018-11-25T00:38:04.551Z,36.00
2018-11-25T00:40:33.586Z,33.83
2018-11-25T00:43:03.155Z,33.90
2018-11-25T00:45:33.135Z,31.30
2018-11-25T00:48:02.015Z,35.20
2018-11-25T00:50:32.286Z,38.90
2018-11-25T00:53:01.498Z,35.23
2018-11-25T00:55:30.531Z,36.83
2018-11-25T00:57:59.434Z,36.73
2018-11-25T01:00:29.083Z,34.90
2018-11-25T01:02:58.090Z,49.33
2018-11-25T01:05:26.839Z,30.70
2018-11-25T01:07:56.250Z,35.30
2018-11-25T01:10:26.140Z,35.73
2018-11-25T01:12:55.578Z,40.27
2018-11-25T01:15:25.031Z,29.33
2018-11-25T01:17:54.626Z,29.73
2018-11-25T01:20:23.463Z,34.43
2018-11-25T01:22:52.674Z,36.50
2018-11-25T01:25:22.922Z,29.53
2018-11-25T01:27:52.115Z,29.10
2018-11-25T01:30:21.762Z,27.10
2018-11-25T01:32:50.795Z,25.57
2018-11-25T01:35:19.878Z,26.13
2018-11-25T01:37:49.530Z,28.67
2018-11-25T01:40:18.723Z,28.97
2018-11-25T01:42:47.570Z,32.30
2018-11-25T01:45:17.341Z,31.63
2018-11-25T01:47:46.198Z,33.63
2018-11-25T01:50:16.793Z,33.57
2018-11-25T01:52:46.531Z,43.00
2018-11-25T01:55:17.416Z,42.90
2018-11-25T01:57:47.276Z,36.30
2018-11-25T02:00:22.954Z,44.17
2018-11-25T02:02:52.238Z,30.33
2018-11-25T02:05:22.285Z,33.50
2018-11-25T02:07:51.728Z,32.60
2018-11-25T02:10:21.858Z,36.33
2018-11-25T02:12:50.706Z,34.13
2018-11-25T02:15:20.215Z,29.90
2018-11-25T02:17:49.134Z,24.27
2018-11-25T02:20:19.934Z,25.97
2018-11-25T02:22:49.995Z,26.03
2018-11-25T02:25:19.786Z,26.17
2018-11-25T02:27:48.894Z,24.10
2018-11-25T02:30:18.615Z,22.90
2018-11-25T02:32:49.026Z,22.30
2018-11-25T02:35:18.214Z,20.77
2018-11-25T02:37:47.787Z,23.03
2018-11-25T02:40:17.135Z,23.40
2018-11-25T02:42:47.401Z,24.60
2018-11-25T02:45:17.214Z,24.80
2018-11-25T02:47:46.814Z,23.53
2018-11-25T02:50:27.408Z,22.30
2018-11-25T02:52:58.456Z,24.30
2018-11-25T02:55:36.067Z,25.50
2018-11-25T02:58:06.272Z,25.93
2018-11-25T03:00:36.448Z,25.63
2018-11-25T03:03:06.450Z,24.70
2018-11-25T03:05:35.301Z,23.87
2018-11-25T03:08:04.774Z,24.07
2018-11-25T03:10:34.122Z,22.03
2018-11-25T03:13:04.886Z,24.27
2018-11-25T03:15:34.291Z,27.80
2018-11-25T03:18:03.107Z,23.57
2018-11-25T03:20:32.363Z,25.07
2018-11-25T03:23:01.246Z,24.50
2018-11-25T03:25:31.387Z,28.70
2018-11-25T03:28:00.789Z,28.37
2018-11-25T03:30:31.466Z,27.50
2018-11-25T03:33:01.310Z,25.50
2018-11-25T03:35:30.119Z,22.13
2018-11-25T03:37:59.666Z,21.87
2018-11-25T03:40:29.219Z,20.30
2018-11-25T03:42:58.831Z,23.83
2018-11-25T03:45:28.838Z,21.60
2018-11-25T03:47:57.842Z,23.73
2018-11-25T03:50:27.313Z,28.27
2018-11-25T03:52:57.483Z,27.17
2018-11-25T03:55:27.066Z,29.90
2018-11-25T03:57:56.058Z,22.37
2018-11-25T04:00:25.577Z,26.47
2018-11-25T04:02:55.876Z,27.80
2018-11-25T04:05:25.130Z,21.43
2018-11-25T04:07:54.039Z,26.93
2018-11-25T04:10:24.073Z,24.83
2018-11-25T04:12:53.233Z,30.73
2018-11-25T04:15:21.934Z,33.00
2018-11-25T04:17:51.546Z,25.90
2018-11-25T04:20:21.313Z,28.10
2018-11-25T04:22:51.274Z,25.90
2018-11-25T04:25:20.194Z,29.27
2018-11-25T04:27:49.107Z,27.73
2018-11-25T04:30:19.032Z,32.87
2018-11-25T04:32:49.890Z,30.63
2018-11-25T04:35:19.237Z,31.50
2018-11-25T04:37:48.366Z,23.53
2018-11-25T04:40:17.908Z,32.90
2018-11-25T04:42:46.993Z,28.17
2018-11-25T04:45:17.579Z,27.07
2018-11-25T04:47:47.164Z,36.80
2018-11-25T04:50:17.832Z,30.73
2018-11-25T04:52:46.952Z,24.07
2018-11-25T04:55:16.812Z,29.40
2018-11-25T04:57:51.511Z,31.00
2018-11-25T05:00:20.687Z,28.33
2018-11-25T05:02:50.343Z,29.50
2018-11-25T05:05:19.250Z,28.00
2018-11-25T05:07:48.771Z,21.83
2018-11-25T05:10:18.414Z,31.27
2018-11-25T05:12:48.291Z,24.27
2018-11-25T05:15:20.266Z,23.67
2018-11-25T05:17:49.232Z,22.90
2018-11-25T05:20:19.206Z,22.47
2018-11-25T05:22:49.077Z,25.93
2018-11-25T05:25:18.730Z,23.90
2018-11-25T05:27:47.760Z,23.80
2018-11-25T05:30:18.174Z,21.50
2018-11-25T05:32:48.467Z,25.13
2018-11-25T05:35:20.059Z,21.00
2018-11-25T05:37:49.709Z,20.53
2018-11-25T05:40:18.868Z,24.83
2018-11-25T05:42:47.783Z,21.17
2018-11-25T05:45:17.526Z,20.60
2018-11-25T05:47:46.528Z,19.60
2018-11-25T05:50:19.080Z,20.93
2018-11-25T05:52:48.018Z,23.30
2018-11-25T05:55:17.719Z,20.40
2018-11-25T05:57:47.372Z,24.20
2018-11-25T06:00:17.908Z,22.67
2018-11-25T06:02:48.326Z,22.63
2018-11-25T06:05:17.211Z,20.17
2018-11-25T06:07:47.073Z,18.10
2018-11-25T06:10:16.587Z,20.17
2018-11-25T06:12:45.570Z,19.03
2018-11-25T06:15:15.025Z,18.53
2018-11-25T06:17:44.505Z,19.67
2018-11-25T06:20:15.134Z,19.77
2018-11-25T06:22:44.080Z,16.77
2018-11-25T06:25:14.997Z,18.23
2018-11-25T06:27:44.752Z,17.77
2018-11-25T06:30:16.883Z,17.23
2018-11-25T06:32:46.562Z,16.57
2018-11-25T06:35:16.330Z,17.40
2018-11-25T06:37:45.274Z,16.83
2018-11-25T06:40:16.195Z,18.07
2018-11-25T06:42:46.146Z,18.60
2018-11-25T06:45:22.990Z,23.47
2018-11-25T06:47:51.932Z,20.77
2018-11-25T06:50:21.428Z,24.30
2018-11-25T06:52:51.110Z,23.27
2018-11-25T06:55:20.438Z,22.43
2018-11-25T06:57:49.362Z,24.30
2018-11-25T07:00:25.334Z,22.87
2018-11-25T07:02:55.163Z,23.67
2018-11-25T07:05:24.076Z,25.07
2018-11-25T07:07:53.067Z,23.87
2018-11-25T07:10:23.410Z,25.57
2018-11-25T07:12:53.390Z,22.73
2018-11-25T07:15:23.134Z,22.73
2018-11-25T07:17:52.550Z,22.83
2018-11-25T07:20:22.318Z,31.90
2018-11-25T07:22:51.898Z,26.13
2018-11-25T07:25:25.238Z,25.90
2018-11-25T07:27:55.407Z,35.37
2018-11-25T07:30:25.939Z,26.60
2018-11-25T07:32:54.842Z,30.20
2018-11-25T07:35:25.435Z,25.43
2018-11-25T07:37:54.545Z,26.60
2018-11-25T07:40:25.622Z,36.03
2018-11-25T07:42:54.462Z,28.57
2018-11-25T07:45:30.242Z,32.37
2018-11-25T07:47:53.519Z,26.77
2018-11-25T07:50:23.926Z,27.27
2018-11-25T07:52:53.686Z,29.33
2018-11-25T07:55:23.682Z,31.47
2018-11-25T07:57:53.560Z,32.93
2018-11-25T08:00:23.851Z,32.43
2018-11-25T08:03:00.860Z,31.93
2018-11-25T08:05:31.251Z,29.20
2018-11-25T08:08:00.337Z,29.10
2018-11-25T08:10:30.022Z,29.30
2018-11-25T08:12:58.846Z,31.63
2018-11-25T08:15:28.027Z,33.03
2018-11-25T08:17:57.531Z,27.77
2018-11-25T08:20:27.727Z,35.20
2018-11-25T08:22:57.153Z,29.10
2018-11-25T08:25:27.176Z,29.50
2018-11-25T08:27:57.308Z,27.37
2018-11-25T08:30:26.229Z,28.37
2018-11-25T08:32:55.940Z,26.07
2018-11-25T08:35:25.414Z,26.10
2018-11-25T08:37:54.960Z,26.57
2018-11-25T08:40:24.993Z,23.50
2018-11-25T08:42:54.072Z,25.63
2018-11-25T08:45:24.722Z,25.47
2018-11-25T08:47:53.567Z,21.57
2018-11-25T08:50:23.050Z,22.90
2018-11-25T08:52:52.920Z,27.03
2018-11-25T08:55:23.650Z,23.10
2018-11-25T08:57:52.797Z,24.70
2018-11-25T09:00:22.591Z,24.37
2018-11-25T09:02:52.139Z,20.33
2018-11-25T09:05:21.665Z,21.60
2018-11-25T09:07:51.682Z,20.10
2018-11-25T09:10:21.483Z,22.00
2018-11-25T09:12:56.083Z,17.53
2018-11-25T09:15:23.383Z,19.30
2018-11-25T09:17:52.877Z,17.47
2018-11-25T09:20:24.049Z,17.90
2018-11-25T09:22:55.154Z,15.47
2018-11-25T09:25:27.135Z,17.90
2018-11-25T09:27:56.445Z,19.50
2018-11-25T09:30:26.315Z,18.70
2018-11-25T09:32:55.942Z,19.50
2018-11-25T09:35:25.234Z,19.07
2018-11-25T09:37:54.009Z,20.07
2018-11-25T09:40:23.894Z,19.03
2018-11-25T09:42:53.104Z,18.70
2018-11-25T09:45:22.574Z,21.50
2018-11-25T09:47:51.806Z,20.80
2018-11-25T09:50:24.016Z,19.33
2018-11-25T09:52:52.944Z,21.80
2018-11-25T09:55:24.191Z,19.83
2018-11-25T09:57:57.014Z,21.10
2018-11-25T10:00:27.922Z,20.43
2018-11-25T10:02:57.700Z,20.70
2018-11-25T10:05:27.369Z,21.67
2018-11-25T10:07:56.966Z,19.77
2018-11-25T10:10:27.473Z,20.70
2018-11-25T10:12:57.114Z,24.13
2018-11-25T10:15:27.133Z,22.00
2018-11-25T10:17:59.964Z,22.67
2018-11-25T10:20:27.710Z,22.67
2018-11-25T10:22:57.074Z,23.43
2018-11-25T10:25:27.272Z,22.27
2018-11-25T10:27:56.303Z,23.80
2018-11-25T10:30:26.422Z,23.90
2018-11-25T10:32:57.008Z,22.07
2018-11-25T10:35:26.026Z,23.53
2018-11-25T10:37:54.973Z,21.93
2018-11-25T10:40:24.627Z,23.37
2018-11-25T10:42:54.195Z,23.00
2018-11-25T10:45:25.187Z,24.30
2018-11-25T10:47:54.642Z,24.50
2018-11-25T10:50:23.685Z,24.37
2018-11-25T10:52:53.770Z,21.73
2018-11-25T10:55:23.743Z,22.37
2018-11-25T10:57:53.263Z,25.67
2018-11-25T11:00:36.677Z,23.77
2018-11-25T11:03:12.148Z,22.80
2018-11-25T11:05:46.161Z,24.57
2018-11-25T11:08:15.271Z,24.20
2018-11-25T11:10:45.466Z,22.87
2018-11-25T11:13:15.255Z,23.20
2018-11-25T11:15:45.497Z,26.43
2018-11-25T11:18:15.187Z,25.80
2018-11-25T11:20:44.933Z,34.47
2018-11-25T11:23:14.774Z,25.20
2018-11-25T11:25:44.236Z,27.23
2018-11-25T11:28:13.821Z,26.27
2018-11-25T11:30:43.470Z,25.10
2018-11-25T11:33:13.242Z,27.20
2018-11-25T11:35:42.826Z,25.57
2018-11-25T11:38:12.179Z,26.40
2018-11-25T11:40:41.708Z,29.00
2018-11-25T11:43:10.555Z,26.60
2018-11-25T11:45:39.367Z,29.57
2018-11-25T11:48:09.010Z,29.47
2018-11-25T11:50:38.470Z,30.27
2018-11-25T11:53:08.835Z,28.37
2018-11-25T11:55:39.566Z,28.20
2018-11-25T11:58:08.461Z,30.83
2018-11-25T12:00:40.528Z,28.10
2018-11-25T12:03:10.553Z,32.27
2018-11-25T12:05:39.808Z,28.53
2018-11-25T12:08:09.149Z,30.20
2018-11-25T12:10:38.998Z,28.23
2018-11-25T12:13:08.641Z,29.53
2018-11-25T12:15:37.522Z,29.73
2018-11-25T12:18:07.218Z,26.40
2018-11-25T12:20:36.902Z,21.00
2018-11-25T12:23:06.670Z,19.27
2018-11-25T12:25:36.326Z,19.63
2018-11-25T12:28:05.341Z,20.40
2018-11-25T12:30:34.323Z,18.10
2018-11-25T12:33:03.975Z,20.67
2018-11-25T12:35:33.575Z,20.20
2018-11-25T12:38:03.171Z,18.50
2018-11-25T12:40:32.750Z,15.73
2018-11-25T12:43:02.057Z,17.70
2018-11-25T12:45:32.716Z,16.00
2018-11-25T12:48:01.677Z,14.30
2018-11-25T12:50:31.465Z,13.97
2018-11-25T12:53:01.219Z,12.00
2018-11-25T12:55:30.666Z,15.90
2018-11-25T12:57:59.622Z,13.83
2018-11-25T13:00:40.307Z,13.93
2018-11-25T13:03:10.328Z,13.50
2018-11-25T13:05:45.976Z,13.27
2018-11-25T13:08:10.990Z,15.30
2018-11-25T13:10:40.038Z,15.40
2018-11-25T13:13:09.919Z,13.90
2018-11-25T13:15:39.034Z,14.73
2018-11-25T13:18:08.937Z,14.57
2018-11-25T13:20:38.996Z,13.37
2018-11-25T13:23:08.163Z,14.17
2018-11-25T13:25:38.926Z,15.10
2018-11-25T13:28:08.395Z,15.27
2018-11-25T13:30:38.170Z,15.10
2018-11-25T13:33:08.129Z,14.53
2018-11-25T13:35:38.366Z,15.37
2018-11-25T13:38:08.323Z,14.43
2018-11-25T13:40:37.924Z,14.40
2018-11-25T13:43:07.155Z,14.17
2018-11-25T13:45:36.399Z,15.70
2018-11-25T13:48:06.059Z,14.93
2018-11-25T13:50:34.923Z,16.47
2018-11-25T13:53:04.693Z,15.60
2018-11-25T13:55:33.541Z,16.47
2018-11-25T13:58:02.387Z,17.13
2018-11-25T14:00:48.234Z,14.80
2018-11-25T14:03:21.795Z,15.97
2018-11-25T14:05:53.268Z,16.43
2018-11-25T14:08:21.607Z,17.43
2018-11-25T14:10:55.422Z,16.07
2018-11-25T14:13:24.748Z,17.17
2018-11-25T14:15:54.534Z,18.20
2018-11-25T14:18:24.418Z,19.10
2018-11-25T14:20:54.027Z,18.50
2018-11-25T14:23:24.166Z,19.33
2018-11-25T14:25:53.059Z,18.00
2018-11-25T14:28:22.931Z,19.80
2018-11-25T14:30:52.254Z,18.70
2018-11-25T14:33:22.319Z,19.07
2018-11-25T14:35:52.538Z,20.60
2018-11-25T14:38:22.222Z,22.00
2018-11-25T14:40:51.094Z,19.50
2018-11-25T14:43:21.759Z,21.10
2018-11-25T14:45:50.587Z,22.00
2018-11-25T14:48:19.343Z,20.60
2018-11-25T14:50:49.274Z,21.10
2018-11-25T14:53:18.078Z,21.70
2018-11-25T14:55:47.534Z,19.63
2018-11-25T14:58:16.995Z,21.57
2018-11-25T15:00:46.102Z,19.77
2018-11-25T15:03:16.036Z,20.00
2018-11-25T15:05:46.305Z,20.80
2018-11-25T15:08:17.111Z,18.53
2018-11-25T15:10:46.618Z,21.47
2018-11-25T15:13:16.126Z,19.47
2018-11-25T15:15:45.561Z,20.70
2018-11-25T15:18:15.080Z,19.33
2018-11-25T15:20:44.163Z,18.20
2018-11-25T15:23:14.707Z,20.27
2018-11-25T15:25:46.415Z,19.03
2018-11-25T15:28:15.687Z,17.33
2018-11-25T15:30:44.587Z,17.90
2018-11-25T15:33:14.246Z,15.57
2018-11-25T15:35:43.096Z,17.87
2018-11-25T15:38:12.034Z,18.20
2018-11-25T15:40:41.331Z,17.03
2018-11-25T15:43:12.206Z,17.40
2018-11-25T15:45:41.783Z,16.87
2018-11-25T15:48:19.180Z,18.50
2018-11-25T15:50:48.089Z,17.97
2018-11-25T15:53:18.018Z,18.07
2018-11-25T15:55:47.053Z,15.83
2018-11-25T15:58:16.653Z,16.07
2018-11-25T16:00:46.443Z,16.03
2018-11-25T16:03:15.505Z,16.30
2018-11-25T16:05:47.398Z,16.30
2018-11-25T16:08:16.918Z,16.00
2018-11-25T16:10:46.935Z,17.57
2018-11-25T16:13:15.821Z,16.60
2018-11-25T16:15:44.770Z,15.30
2018-11-25T16:18:16.547Z,15.90
2018-11-25T16:20:45.938Z,16.70
2018-11-25T16:23:15.718Z,16.80
2018-11-25T16:25:48.014Z,13.93
2018-11-25T16:28:31.619Z,19.27
2018-11-25T16:31:00.555Z,19.30
2018-11-25T16:33:29.934Z,14.90
2018-11-25T16:35:59.427Z,18.53
2018-11-25T16:38:29.460Z,15.53
2018-11-25T16:40:58.590Z,16.00
2018-11-25T16:43:28.317Z,16.23
2018-11-25T16:45:57.282Z,17.83
2018-11-25T16:48:26.135Z,17.97
2018-11-25T16:50:55.501Z,17.37
2018-11-25T16:53:24.646Z,17.53
2018-11-25T16:55:53.441Z,19.37
2018-11-25T16:58:23.490Z,20.10
2018-11-25T17:00:53.124Z,19.03
2018-11-25T17:03:22.322Z,16.83
2018-11-25T17:05:52.483Z,16.10
2018-11-25T17:08:36.686Z,17.70
2018-11-25T17:11:06.037Z,11.73
2018-11-25T17:13:35.646Z,16.93
2018-11-25T17:16:06.670Z,14.80
2018-11-25T17:18:35.542Z,14.87
2018-11-25T17:21:05.129Z,14.73
2018-11-25T17:23:34.119Z,14.40
2018-11-25T17:26:04.532Z,15.10
2018-11-25T17:28:34.726Z,13.93
2018-11-25T17:31:03.984Z,12.53
2018-11-25T17:33:33.057Z,15.73
2018-11-25T17:36:02.015Z,16.37
2018-11-25T17:38:31.116Z,14.03
2018-11-25T17:41:01.090Z,14.83
2018-11-25T17:43:30.614Z,15.73
2018-11-25T17:46:00.296Z,15.50
2018-11-25T17:48:29.859Z,15.37
2018-11-25T17:50:58.862Z,14.60
2018-11-25T17:53:28.229Z,15.30
2018-11-25T17:55:57.727Z,13.93
2018-11-25T17:58:26.678Z,16.77
2018-11-25T18:01:05.382Z,15.60
2018-11-25T18:03:36.076Z,15.40
2018-11-25T18:06:05.562Z,14.27
2018-11-25T18:08:39.211Z,15.30
2018-11-25T18:11:09.901Z,15.70
2018-11-25T18:13:42.070Z,14.50
2018-11-25T18:16:12.083Z,16.00
2018-11-25T18:18:45.527Z,16.97
2018-11-25T18:21:20.418Z,14.90
2018-11-25T18:23:50.638Z,16.87
2018-11-25T18:26:20.214Z,16.13
2018-11-25T18:28:49.663Z,16.37
2018-11-25T18:31:21.159Z,15.60
2018-11-25T18:33:50.718Z,15.60
2018-11-25T18:36:20.920Z,17.60
2018-11-25T18:38:51.330Z,15.37
2018-11-25T18:41:22.018Z,14.90
2018-11-25T18:43:50.487Z,15.70
2018-11-25T18:46:19.742Z,15.00
2018-11-25T18:48:49.536Z,15.27
2018-11-25T18:51:19.102Z,16.80
2018-11-25T18:53:48.751Z,15.20
2018-11-25T18:56:17.771Z,16.63
2018-11-25T18:58:46.674Z,16.20
2018-11-25T19:01:22.378Z,14.00
2018-11-25T19:03:51.456Z,14.90
2018-11-25T19:06:21.061Z,16.47
2018-11-25T19:08:49.986Z,17.23
2018-11-25T19:11:19.874Z,17.03
2018-11-25T19:13:49.502Z,17.30
2018-11-25T19:16:18.582Z,16.87
2018-11-25T19:18:48.292Z,16.37
2018-11-25T19:21:18.084Z,15.37
2018-11-25T19:23:47.026Z,16.40
2018-11-25T19:26:16.573Z,16.40
2018-11-25T19:28:45.698Z,16.47
2018-11-25T19:31:14.682Z,16.33
2018-11-25T19:33:44.866Z,16.10
2018-11-25T19:36:14.299Z,15.40
2018-11-25T19:38:43.796Z,17.07
2018-11-25T19:41:13.383Z,17.30
2018-11-25T19:43:43.031Z,17.40
2018-11-25T19:46:12.514Z,16.70
2018-11-25T19:48:41.793Z,18.00
2018-11-25T19:51:17.315Z,16.57
2018-11-25T19:53:41.434Z,17.90
2018-11-25T19:56:10.296Z,18.53
2018-11-25T19:58:39.243Z,18.40
2018-11-25T20:01:08.431Z,18.27
2018-11-25T20:03:38.423Z,16.63
2018-11-25T20:06:07.410Z,17.77
2018-11-25T20:08:36.958Z,17.97
2018-11-25T20:11:06.107Z,17.00
2018-11-25T20:13:35.132Z,17.37
2018-11-25T20:16:09.136Z,16.67
2018-11-25T20:18:38.072Z,18.30
2018-11-25T20:21:12.254Z,17.20
2018-11-25T20:23:41.891Z,18.47
2018-11-25T20:26:11.807Z,19.30
2018-11-25T20:28:40.727Z,18.10
2018-11-25T20:31:09.976Z,18.03
2018-11-25T20:33:44.292Z,19.80
2018-11-25T20:36:13.986Z,16.97
2018-11-25T20:38:47.938Z,18.83
2018-11-25T20:41:17.658Z,17.00
2018-11-25T20:43:48.028Z,17.20
2018-11-25T20:46:22.846Z,19.20
2018-11-25T20:48:53.438Z,18.53
2018-11-25T20:51:28.323Z,18.73
2018-11-25T20:53:59.158Z,19.80
2018-11-25T20:56:28.115Z,18.90
2018-11-25T20:58:57.017Z,19.17
2018-11-25T21:01:25.856Z,17.00
2018-11-25T21:03:55.238Z,19.10
2018-11-25T21:06:24.119Z,17.40
2018-11-25T21:08:53.942Z,19.47
2018-11-25T21:11:23.462Z,18.03
2018-11-25T21:13:53.348Z,17.90
2018-11-25T21:16:22.718Z,19.10
2018-11-25T21:18:53.230Z,18.67
2018-11-25T21:21:22.714Z,16.50
2018-11-25T21:23:51.775Z,19.03
2018-11-25T21:26:22.259Z,18.10
2018-11-25T21:28:52.927Z,19.27
2018-11-25T21:31:21.930Z,17.40
2018-11-25T21:33:50.879Z,16.33
2018-11-25T21:36:21.891Z,16.80
2018-11-25T21:38:51.582Z,18.37
2018-11-25T21:41:20.803Z,18.73
2018-11-25T21:43:50.575Z,18.60
2018-11-25T21:46:21.255Z,16.23
2018-11-25T21:48:50.798Z,17.20
2018-11-25T21:51:20.133Z,17.20
2018-11-25T21:53:48.966Z,18.33
2018-11-25T21:56:17.748Z,18.73
2018-11-25T21:58:46.722Z,17.00
2018-11-25T22:01:16.483Z,18.93
2018-11-25T22:03:46.069Z,18.53
2018-11-25T22:06:14.926Z,17.87
2018-11-25T22:08:45.079Z,17.80
2018-11-25T22:11:14.701Z,17.23
2018-11-25T22:13:44.379Z,19.20
2018-11-25T22:16:13.422Z,19.63
2018-11-25T22:18:43.311Z,16.00
2018-11-25T22:21:12.310Z,16.53
2018-11-25T22:23:41.886Z,16.23
2018-11-25T22:26:11.243Z,18.60
2018-11-25T22:28:40.387Z,19.57
2018-11-25T22:31:09.939Z,17.57
2018-11-25T22:33:40.130Z,16.80
2018-11-25T22:36:09.258Z,17.83
2018-11-25T22:38:38.859Z,16.37
2018-11-25T22:41:08.699Z,17.57
2018-11-25T22:43:37.520Z,18.10
2018-11-25T22:46:06.829Z,18.50
2018-11-25T22:48:37.206Z,16.47
2018-11-25T22:51:07.327Z,16.70
2018-11-25T22:53:36.914Z,17.93
2018-11-25T22:56:07.252Z,18.00
2018-11-25T22:58:37.469Z,16.07
2018-11-25T23:01:07.422Z,18.13
2018-11-25T23:03:37.934Z,16.80
2018-11-25T23:06:17.981Z,17.00
2018-11-25T23:08:48.320Z,17.23
2018-11-25T23:11:17.656Z,16.83
2018-11-25T23:13:46.606Z,16.17
2018-11-25T23:16:17.342Z,17.40
2018-11-25T23:18:47.070Z,16.40
2018-11-25T23:21:16.739Z,16.10
2018-11-25T23:23:46.126Z,18.47
2018-11-25T23:26:16.829Z,18.07
2018-11-25T23:28:46.370Z,17.27
2018-11-25T23:31:16.270Z,15.90
2018-11-25T23:33:46.666Z,16.50
2018-11-25T23:36:15.686Z,16.77
2018-11-25T23:38:45.143Z,16.50
2018-11-25T23:41:14.027Z,16.83
2018-11-25T23:43:43.494Z,16.43
2018-11-25T23:46:13.847Z,16.70
2018-11-25T23:48:43.320Z,16.50
2018-11-25T23:51:13.342Z,18.10
2018-11-25T23:53:42.345Z,15.70
2018-11-25T23:56:11.490Z,17.30
2018-11-25T23:58:40.550Z,16.30
